Time;durP1;ratioP1;P1;durP2;ratioP2;P2;SDS_P1;SDS_P2;PMS_P1;PMS_P2;Temp;Humidity;BMP_temperature;BMP_pressure;BME280_temperature;BME280_humidity;BME280_pressure;Samples;Min_cycle;Max_cycle;Signal;HPM_P1;HPM_P2
2022/08/24 00:01:03;;;;;;;6.53;4.25;;;;;;;19.40;54.61;99229.94;5244121;28;20064;-67
2022/08/24 00:03:56;;;;;;;6.18;4.18;;;;;;;19.38;53.53;99229.28;5244339;28;20486;-67
2022/08/24 00:06:48;;;;;;;6.80;4.30;;;;;;;19.34;53.32;99229.88;5244753;28;20414;-67
2022/08/24 00:09:39;;;;;;;8.25;3.92;;;;;;;19.36;54.29;99219.75;5244616;28;20056;-67
2022/08/24 00:12:31;;;;;;;5.15;4.65;;;;;;;19.62;53.92;99227.19;5241890;28;20414;-67
2022/08/24 00:15:21;;;;;;;6.10;4.22;;;;;;;19.44;54.14;99225.00;5244521;28;20055;-67
2022/08/24 00:18:12;;;;;;;7.38;4.75;;;;;;;19.58;53.25;99224.03;5243074;28;20048;-67
2022/08/24 00:21:04;;;;;;;8.70;4.70;;;;;;;19.58;53.28;99218.66;5243518;28;20517;-67
2022/08/24 00:23:54;;;;;;;8.02;4.57;;;;;;;19.30;54.05;99212.44;5243831;28;20045;-67
2022/08/24 00:26:45;;;;;;;7.72;4.25;;;;;;;19.20;54.65;99207.41;5244087;28;20572;-67
2022/08/24 00:29:36;;;;;;;6.90;4.95;;;;;;;19.15;54.63;99208.00;5244443;28;20055;-67
2022/08/24 00:32:28;;;;;;;10.00;4.65;;;;;;;19.30;54.26;99217.81;5227471;28;20342;-68
2022/08/24 00:35:20;;;;;;;6.28;4.70;;;;;;;19.40;54.26;99218.31;5244027;28;20052;-67
2022/08/24 00:38:10;;;;;;;6.63;4.55;;;;;;;19.43;54.09;99218.75;5228803;28;20636;-67
2022/08/24 00:41:02;;;;;;;6.53;4.55;;;;;;;19.19;54.34;99225.41;5228145;28;20134;-67
2022/08/24 00:44:03;;;;;;;7.78;4.70;;;;;;;19.05;54.66;99217.41;5243539;28;20055;-67
2022/08/24 00:46:58;;;;;;;10.52;4.38;;;;;;;18.86;55.26;99219.72;5243683;28;20139;-67
2022/08/24 00:50:04;;;;;;;7.22;4.78;;;;;;;18.99;55.59;99217.16;5243177;28;20071;-67
2022/08/24 00:52:58;;;;;;;9.98;5.20;;;;;;;18.98;55.35;99217.34;5227763;28;20051;-67
2022/08/24 00:55:52;;;;;;;6.50;4.50;;;;;;;19.09;54.65;99210.63;5242935;28;20056;-67
2022/08/24 00:58:54;;;;;;;8.57;4.78;;;;;;;19.02;55.45;99211.41;5244081;28;20105;-67
2022/08/24 01:01:49;;;;;;;7.38;5.22;;;;;;;19.08;55.94;99220.56;5242598;28;20052;-67
2022/08/24 01:04:56;;;;;;;9.10;5.38;;;;;;;18.92;55.32;99212.75;5243715;28;20064;-67
2022/08/24 01:07:49;;;;;;;10.52;5.22;;;;;;;18.70;56.49;99210.00;5242300;28;20055;-67
2022/08/24 01:10:50;;;;;;;7.13;5.30;;;;;;;18.66;55.77;99221.34;5242396;28;20059;-67
2022/08/24 01:13:43;;;;;;;9.52;5.03;;;;;;;18.58;56.34;99219.63;5243037;28;20044;-67
2022/08/24 01:19:47;;;;;;;5.13;4.60;;;;;;;18.62;56.09;99218.19;5240997;28;20157;-67
2022/08/24 01:22:55;;;;;;;8.00;5.28;;;;;;;18.65;56.32;99220.50;5242609;28;20045;-67
2022/08/24 01:25:45;;;;;;;11.43;5.20;;;;;;;18.44;57.04;99225.84;5228415;28;20145;-67
2022/08/24 01:28:38;;;;;;;9.55;4.80;;;;;;;18.39;57.21;99217.53;5242439;28;20063;-67
2022/08/24 01:31:29;;;;;;;8.07;5.05;;;;;;;18.55;58.10;99220.81;5243140;28;20056;-67
2022/08/24 01:34:20;;;;;;;7.15;5.28;;;;;;;18.54;57.07;99223.66;5243579;28;20049;-67
2022/08/24 01:37:13;;;;;;;11.48;5.32;;;;;;;18.57;57.20;99225.16;5243153;28;20056;-67
2022/08/24 01:40:06;;;;;;;7.68;5.05;;;;;;;18.47;57.50;99228.97;5242443;28;20067;-67
2022/08/24 01:42:56;;;;;;;9.57;5.13;;;;;;;18.44;56.72;99228.50;5227343;28;20048;-67
2022/08/24 01:45:47;;;;;;;6.63;4.80;;;;;;;18.39;57.86;99233.63;5227980;28;20135;-67
2022/08/24 01:48:37;;;;;;;10.35;5.60;;;;;;;18.45;57.65;99246.31;5228200;28;20056;-67
2022/08/24 01:51:30;;;;;;;9.23;5.85;;;;;;;18.50;57.89;99246.56;5227318;28;20546;-67
2022/08/24 01:54:23;;;;;;;6.93;5.30;;;;;;;18.18;58.66;99243.31;5242446;28;20068;-67
2022/08/24 01:57:13;;;;;;;8.73;6.00;;;;;;;18.10;59.32;99246.06;5227807;28;20063;-67
2022/08/24 02:00:10;;;;;;;7.40;4.97;;;;;;;18.14;57.79;99243.84;5228292;28;20418;-67
2022/08/24 02:03:02;;;;;;;7.72;5.72;;;;;;;18.16;58.12;99236.44;5243130;28;20071;-67
2022/08/24 02:05:53;;;;;;;12.05;4.93;;;;;;;18.12;57.43;99227.13;5231789;28;20048;-67
2022/08/24 02:08:44;;;;;;;9.23;5.13;;;;;;;18.08;57.90;99230.16;5231655;28;20098;-67
2022/08/24 02:11:36;;;;;;;8.70;4.88;;;;;;;17.99;57.18;99231.28;5229862;28;20056;-67
2022/08/24 02:14:27;;;;;;;8.50;4.63;;;;;;;18.12;57.48;99243.22;5246675;28;20478;-67
2022/08/24 02:17:20;;;;;;;11.13;5.20;;;;;;;18.01;57.33;99239.97;5246438;28;20583;-67
2022/08/24 02:20:12;;;;;;;6.05;4.65;;;;;;;18.07;57.26;99252.63;5229559;28;20171;-67
2022/08/24 02:23:05;;;;;;;7.55;5.07;;;;;;;17.94;56.88;99232.84;5230840;28;20052;-67
2022/08/24 02:25:55;;;;;;;5.55;4.55;;;;;;;18.07;56.72;99254.47;5231607;28;20453;-67
2022/08/24 02:28:45;;;;;;;4.90;4.38;;;;;;;18.04;56.11;99252.16;5246515;28;20068;-67
2022/08/24 02:31:36;;;;;;;8.20;5.03;;;;;;;17.92;57.71;99242.94;5245439;28;20057;-67
2022/08/24 02:34:27;;;;;;;6.38;4.22;;;;;;;17.80;56.88;99242.56;5230967;28;20414;-67
2022/08/24 02:37:17;;;;;;;9.57;5.45;;;;;;;17.81;57.82;99255.78;5230687;28;20060;-67
2022/08/24 02:40:08;;;;;;;8.88;5.30;;;;;;;18.01;58.23;99258.75;5245639;28;20577;-67
2022/08/24 02:43:00;;;;;;;5.88;4.97;;;;;;;18.14;57.94;99252.72;5244430;28;20127;-67
2022/08/24 02:45:51;;;;;;;7.07;4.57;;;;;;;18.18;57.27;99251.34;5230719;28;20438;-67
2022/08/24 02:48:43;;;;;;;6.55;4.65;;;;;;;17.97;56.50;99232.47;5244988;28;20079;-67
2022/08/24 02:51:34;;;;;;;5.63;4.78;;;;;;;17.98;56.62;99247.53;5229732;28;20555;-67
2022/08/24 02:54:34;;;;;;;5.22;4.10;;;;;;;17.78;56.91;99242.75;5230643;28;20059;-67
2022/08/24 02:57:24;;;;;;;8.75;4.57;;;;;;;17.78;57.30;99236.53;5244722;28;20076;-68
2022/08/24 03:00:18;;;;;;;10.48;5.07;;;;;;;17.80;57.20;99242.56;5230148;28;20170;-66
2022/08/24 03:03:12;;;;;;;8.00;5.10;;;;;;;17.75;56.77;99240.41;5245082;28;20358;-66
2022/08/24 03:06:04;;;;;;;12.73;5.40;;;;;;;17.71;57.02;99248.97;5255307;22;20532;-72
2022/08/24 03:08:56;;;;;;;7.18;4.95;;;;;;;17.67;57.40;99239.66;5246579;28;20055;-72
2022/08/24 03:11:46;;;;;;;14.30;5.10;;;;;;;17.55;57.74;99234.75;5242992;28;20055;-71
2022/08/24 03:14:39;;;;;;;8.05;5.18;;;;;;;17.53;57.59;99241.28;5244384;28;20055;-74
2022/08/24 03:17:32;;;;;;;6.07;5.03;;;;;;;17.46;57.79;99238.50;5230376;28;20421;-71
2022/08/24 03:20:23;;;;;;;6.90;5.47;;;;;;;17.58;57.54;99237.06;5254747;28;20051;-71
2022/08/24 03:23:14;;;;;;;7.65;5.32;;;;;;;17.31;58.96;99238.47;5246860;28;20109;-73
2022/08/24 03:26:05;;;;;;;6.50;5.18;;;;;;;17.45;58.59;99238.69;5265565;28;20121;-71
2022/08/24 03:28:55;;;;;;;8.20;5.20;;;;;;;17.07;58.12;99210.03;5249876;28;20139;-72
2022/08/24 03:31:48;;;;;;;7.53;5.40;;;;;;;17.08;59.38;99238.47;5264207;28;20138;-72
2022/08/24 03:34:39;;;;;;;6.30;5.30;;;;;;;17.00;59.17;99217.13;5250525;28;20134;-73
2022/08/24 03:37:31;;;;;;;8.45;5.30;;;;;;;17.03;59.77;99213.28;5250689;28;20062;-71
2022/08/24 03:40:22;;;;;;;9.40;6.03;;;;;;;17.12;59.75;99241.66;5264606;28;20075;-75
2022/08/24 03:46:28;;;;;;;10.40;5.20;;;;;;;17.52;58.30;99234.28;5250280;28;20455;-71
2022/08/24 03:49:19;;;;;;;11.40;5.67;;;;;;;17.79;57.49;99239.03;5250275;28;20423;-71
2022/08/24 03:52:10;;;;;;;7.93;5.32;;;;;;;17.89;57.63;99243.31;5249104;28;20055;-74
2022/08/24 03:55:02;;;;;;;7.35;5.32;;;;;;;17.94;57.99;99238.19;5264522;28;20047;-72
2022/08/24 03:57:52;;;;;;;9.25;5.80;;;;;;;17.83;57.93;99243.00;5249974;28;20288;-74
2022/08/24 04:00:43;;;;;;;7.95;5.47;;;;;;;17.72;58.64;99234.56;5249881;28;20055;-72
2022/08/24 04:03:39;;;;;;;6.07;5.00;;;;;;;18.10;56.75;99239.88;5249973;28;20113;-72
2022/08/24 04:06:29;;;;;;;7.90;5.10;;;;;;;17.78;57.63;99245.44;5265166;28;20423;-71
2022/08/24 04:09:20;;;;;;;7.22;5.22;;;;;;;17.83;57.89;99236.81;5249976;28;20059;-73
2022/08/24 04:12:11;;;;;;;8.73;5.72;;;;;;;17.92;58.23;99240.25;5263626;28;20485;-73
2022/08/24 04:15:01;;;;;;;6.25;5.25;;;;;;;17.86;58.10;99247.19;5265614;28;20137;-73
2022/08/24 04:17:53;;;;;;;8.98;6.15;;;;;;;17.84;57.17;99233.94;5248552;28;20056;-73
2022/08/24 04:20:43;;;;;;;7.70;5.30;;;;;;;17.86;57.85;99235.63;5249305;28;20063;-74
2022/08/24 04:23:39;;;;;;;7.20;5.32;;;;;;;18.03;57.81;99248.66;5236092;28;20109;-71
2022/08/24 04:26:40;;;;;;;7.10;5.40;;;;;;;18.12;57.52;99257.47;5263200;28;20094;-74
2022/08/24 04:29:36;;;;;;;7.43;5.45;;;;;;;18.13;58.17;99256.44;5249627;28;20056;-72
2022/08/24 04:32:28;;;;;;;9.15;5.05;;;;;;;18.09;57.88;99252.47;5248376;28;20048;-72
2022/08/24 04:35:18;;;;;;;7.13;5.32;;;;;;;17.94;57.54;99263.19;5263772;28;20075;-72
2022/08/24 04:38:09;;;;;;;8.00;5.95;;;;;;;17.80;58.15;99264.00;5249542;28;20055;-71
2022/08/24 04:41:04;;;;;;;7.38;5.55;;;;;;;17.74;58.09;99260.16;5263082;28;20502;-72
2022/08/24 04:43:55;;;;;;;7.68;5.55;;;;;;;17.70;58.17;99274.13;5249081;28;20073;-72
2022/08/24 04:46:46;;;;;;;7.43;5.40;;;;;;;17.60;58.60;99277.09;5249422;28;20059;-72
2022/08/24 04:49:38;;;;;;;10.50;5.50;;;;;;;17.59;58.53;99268.22;5263776;28;20058;-74
2022/08/24 04:52:29;;;;;;;8.27;5.82;;;;;;;17.74;59.09;99273.59;5248348;28;20134;-72
2022/08/24 04:55:19;;;;;;;10.50;5.97;;;;;;;17.69;58.74;99289.41;5263812;28;20122;-71
2022/08/24 04:58:12;;;;;;;8.13;5.63;;;;;;;17.49;59.90;99278.38;5249438;28;20626;-71
2022/08/24 05:01:07;;;;;;;9.20;5.40;;;;;;;17.37;59.82;99280.63;5264544;28;20079;-72
2022/08/24 05:03:58;;;;;;;7.10;5.55;;;;;;;17.44;59.83;99290.63;5248712;28;20413;-72
2022/08/24 05:06:49;;;;;;;12.68;6.57;;;;;;;17.46;60.02;99292.13;5249075;28;20523;-72
2022/08/24 05:09:44;;;;;;;;;;;;;;;17.49;58.80;99296.28;5249958;28;20121;-72
2022/08/24 05:12:34;;;;;;;8.73;5.95;;;;;;;17.45;58.77;99274.38;5262726;28;20061;-74
2022/08/24 05:15:27;;;;;;;9.50;6.18;;;;;;;17.55;58.53;99295.59;5263501;28;20144;-71
2022/08/24 05:18:17;;;;;;;9.32;6.15;;;;;;;17.58;58.55;99297.88;5247407;28;20060;-73
2022/08/24 05:21:11;;;;;;;9.63;5.60;;;;;;;17.62;59.95;99299.19;5262753;28;20136;-71
2022/08/24 05:24:03;;;;;;;9.90;5.72;;;;;;;17.79;59.78;99300.72;5249440;28;20055;-71
2022/08/24 05:26:54;;;;;;;7.63;5.13;;;;;;;17.74;60.35;99292.34;5249331;28;20561;-73
2022/08/24 05:29:45;;;;;;;8.18;5.78;;;;;;;17.83;60.44;99291.28;5263341;28;20098;-72
2022/08/24 05:32:37;;;;;;;12.10;6.05;;;;;;;18.11;59.82;99284.47;5247832;28;20048;-73
2022/08/24 05:35:27;;;;;;;22.38;7.47;;;;;;;18.08;59.66;99288.38;5263179;28;20540;-71
2022/08/24 05:38:20;;;;;;;11.15;6.22;;;;;;;18.12;59.30;99278.09;5251839;28;20063;-71
2022/08/24 05:41:10;;;;;;;13.15;6.88;;;;;;;18.09;58.57;99279.28;5266697;28;20514;-73
2022/08/24 05:44:02;;;;;;;11.70;6.72;;;;;;;18.35;58.85;99302.97;5253095;28;20052;-73
2022/08/24 05:46:57;;;;;;;11.00;6.50;;;;;;;18.45;58.29;99306.22;5252955;28;20044;-71
2022/08/24 05:49:50;;;;;;;9.85;6.95;;;;;;;18.53;58.31;99297.22;5252902;28;20052;-74
2022/08/24 05:52:40;;;;;;;22.48;6.75;;;;;;;18.56;58.04;99304.88;5251916;28;20074;-71
2022/08/24 05:55:31;;;;;;;16.88;6.43;;;;;;;18.61;57.96;99309.69;5266792;28;20063;-71
2022/08/24 05:58:21;;;;;;;9.80;6.55;;;;;;;18.71;58.76;99304.88;5252589;28;20052;-71
2022/08/24 06:01:24;;;;;;;13.18;6.45;;;;;;;18.83;57.90;99308.75;5251720;28;20133;-71
2022/08/24 06:04:15;;;;;;;9.63;7.15;;;;;;;19.11;57.96;99316.09;5252478;28;20052;-70
2022/08/24 06:07:10;;;;;;;12.23;6.78;;;;;;;19.20;57.29;99310.41;5252278;28;20080;-71
2022/08/24 06:10:04;;;;;;;12.70;7.00;;;;;;;19.34;57.02;99308.69;5252513;28;20055;-72
2022/08/24 06:13:15;;;;;;;8.52;6.03;;;;;;;19.52;55.53;99318.97;5251592;28;20048;-70
2022/08/24 06:16:10;;;;;;;8.05;5.88;;;;;;;19.59;56.10;99319.00;5266585;28;20102;-71
2022/08/24 06:19:15;;;;;;;6.95;4.93;;;;;;;19.77;54.89;99313.19;5250539;28;20079;-71
2022/08/24 06:22:05;;;;;;;11.40;5.38;;;;;;;19.85;54.21;99318.44;5250781;28;20071;-70
2022/08/24 06:28:06;;;;;;;5.65;4.18;;;;;;;20.02;53.88;99300.13;5252245;28;20113;-74
2022/08/24 06:31:04;;;;;;;5.35;4.20;;;;;;;20.22;52.50;99297.53;5251243;28;20052;-74
2022/08/24 06:33:54;;;;;;;6.13;3.90;;;;;;;20.39;52.11;99323.09;5251778;28;20165;-74
2022/08/24 06:36:45;;;;;;;5.10;3.92;;;;;;;20.42;52.50;99314.63;5251868;28;20184;-74
2022/08/24 06:39:35;;;;;;;5.88;3.38;;;;;;;20.78;50.98;99313.59;5252334;28;20051;-71
2022/08/24 06:42:28;;;;;;;5.70;3.83;;;;;;;21.35;48.47;99304.19;5250881;28;20557;-70
2022/08/24 06:45:21;;;;;;;5.75;4.10;;;;;;;21.21;49.52;99319.50;5252132;28;20149;-73
2022/08/24 06:48:13;;;;;;;7.38;3.65;;;;;;;21.43;48.42;99317.50;5251818;28;20105;-72
2022/08/24 06:51:13;;;;;;;7.97;3.90;;;;;;;21.38;49.16;99314.56;5265244;28;20059;-71
2022/08/24 06:54:03;;;;;;;4.95;3.72;;;;;;;21.56;49.45;99306.72;5252178;28;20055;-72
2022/08/24 06:56:55;;;;;;;7.47;3.65;;;;;;;21.91;47.82;99314.56;5251546;28;20134;-71
2022/08/24 06:59:45;;;;;;;6.88;2.97;;;;;;;21.96;47.71;99320.19;5266078;28;20059;-74
2022/08/24 07:02:36;;;;;;;8.70;3.70;;;;;;;22.10;46.24;99309.38;5250323;28;20431;-70
2022/08/24 07:05:27;;;;;;;3.92;3.42;;;;;;;22.29;45.58;99316.63;5265601;28;20047;-71
2022/08/24 07:08:36;;;;;;;5.15;3.60;;;;;;;22.39;46.24;99327.00;5266837;28;20051;-70
2022/08/24 07:11:27;;;;;;;7.32;3.53;;;;;;;22.43;46.25;99317.41;5264688;28;20094;-72
2022/08/24 07:14:18;;;;;;;5.10;3.83;;;;;;;22.61;44.70;99311.31;5251252;28;20075;-71
2022/08/24 07:17:10;;;;;;;8.45;5.72;;;;;;;23.12;44.36;99324.81;5250828;28;20429;-72
2022/08/24 07:20:03;;;;;;;10.82;4.88;;;;;;;23.25;44.71;99337.44;5265410;28;20508;-71
2022/08/24 07:23:13;;;;;;;9.63;5.85;;;;;;;23.72;43.29;99326.31;5265692;28;20056;-72
2022/08/24 07:26:07;;;;;;;9.40;5.40;;;;;;;23.91;43.03;99338.84;5264931;28;20506;-73
2022/08/24 07:29:05;;;;;;;8.15;4.88;;;;;;;24.57;42.18;99345.50;5251092;28;20154;-71
2022/08/24 07:32:02;;;;;;;6.50;3.40;;;;;;;24.71;41.38;99330.72;5249666;28;20498;-71
2022/08/24 07:34:56;;;;;;;5.20;3.05;;;;;;;25.04;40.36;99324.88;5265275;28;20048;-73
2022/08/24 07:37:47;;;;;;;4.47;3.08;;;;;;;25.26;40.06;99338.78;5250602;28;20071;-71
2022/08/24 07:40:39;;;;;;;4.18;2.88;;;;;;;25.71;38.87;99335.59;5250193;28;20524;-71
2022/08/24 07:43:51;;;;;;;2.97;2.75;;;;;;;26.64;37.61;99339.38;5265593;28;20070;-71
2022/08/24 07:46:42;;;;;;;5.15;2.85;;;;;;;27.55;34.97;99344.97;5250652;28;20162;-72
2022/08/24 07:49:33;;;;;;;5.43;2.72;;;;;;;28.35;34.13;99345.69;5265980;28;20059;-74
2022/08/24 07:52:28;;;;;;;6.25;2.67;;;;;;;28.82;34.50;99334.31;5249225;28;20144;-72
2022/08/24 07:55:19;;;;;;;5.00;2.78;;;;;;;29.34;33.03;99343.88;5264590;28;20450;-72
2022/08/24 07:58:09;;;;;;;4.63;2.60;;;;;;;29.54;32.36;99351.44;5236137;28;20433;-73
2022/08/24 08:01:00;;;;;;;4.82;2.40;;;;;;;30.15;31.58;99346.50;5262848;28;20125;-73
2022/08/24 08:03:50;;;;;;;10.55;2.58;;;;;;;30.23;30.12;99348.75;5249762;28;20173;-73
2022/08/24 08:06:41;;;;;;;4.03;2.40;;;;;;;30.38;30.62;99351.59;5249627;28;20502;-72
2022/08/24 08:09:35;;;;;;;3.88;2.03;;;;;;;30.76;30.52;99349.63;5264482;28;20643;-72
2022/08/24 08:12:25;;;;;;;3.90;2.05;;;;;;;31.05;29.58;99346.44;5248051;28;20071;-72
2022/08/24 08:15:18;;;;;;;7.97;2.25;;;;;;;31.22;30.27;99335.22;5264245;28;20518;-73
2022/08/24 08:18:18;;;;;;;4.30;2.15;;;;;;;31.85;30.12;99340.50;5248454;28;20124;-73
2022/08/24 08:24:13;;;;;;;4.80;1.92;;;;;;;31.97;28.06;99330.13;5263634;28;20887;-73
2022/08/24 08:24:19;;;;;;;2.40;1.90;;;;;;;32.60;27.67;99326.97;5264165;28;20373;-72
2022/08/24 08:27:16;;;;;;;6.95;1.70;;;;;;;32.48;27.87;99330.00;5249815;28;20414;-73
2022/08/24 08:30:07;;;;;;;5.35;1.70;;;;;;;32.79;27.48;99327.16;5264331;28;20494;-73
2022/08/24 08:32:58;;;;;;;4.95;1.58;;;;;;;33.25;28.15;99326.94;5248953;28;20131;-73
2022/08/24 08:35:52;;;;;;;5.32;1.85;;;;;;;33.38;26.15;99320.78;5264621;28;20430;-73
2022/08/24 08:38:42;;;;;;;4.30;1.80;;;;;;;33.54;26.19;99313.25;5249453;28;20140;-74
2022/08/24 08:41:52;;;;;;;1.98;1.65;;;;;;;33.14;26.24;99320.66;5248421;28;20508;-73
2022/08/24 08:44:59;;;;;;;7.38;2.47;;;;;;;33.48;25.95;99320.72;5263844;28;20104;-72
2022/08/24 08:48:24;;;;;;;1.70;1.58;;;;;;;33.94;26.23;99325.00;5249337;28;20085;-73
2022/08/24 08:51:35;;;;;;;4.75;1.40;;;;;;;34.36;25.80;99307.81;5262975;28;20059;-73
2022/08/24 08:54:43;;;;;;;4.75;1.45;;;;;;;33.86;26.49;99318.22;5249700;28;20055;-72
2022/08/24 08:57:56;;;;;;;5.90;1.73;;;;;;;34.46;26.19;99313.19;5249271;28;20070;-74
2022/08/24 09:01:14;;;;;;;2.25;1.40;;;;;;;34.48;24.70;99310.97;5263156;28;20083;-73
2022/08/24 09:04:44;;;;;;;3.28;1.52;;;;;;;35.27;25.63;99311.31;5249594;28;20408;-72
2022/08/24 09:07:55;;;;;;;11.85;1.73;;;;;;;34.89;25.46;99304.94;5262351;22;20048;-66
2022/08/24 09:11:08;;;;;;;4.15;1.50;;;;;;;35.12;24.74;99302.47;5242247;28;20056;-66
2022/08/24 09:14:13;;;;;;;3.63;1.52;;;;;;;34.63;25.64;99300.91;5246387;28;20052;-66
2022/08/24 09:17:17;;;;;;;1.88;1.60;;;;;;;34.74;24.92;99300.50;5232735;28;20044;-65
2022/08/24 09:21:16;;;;;;;6.05;2.00;;;;;;;34.93;25.61;99302.41;5246335;28;20098;-66
2022/08/24 09:24:29;;;;;;;6.95;1.73;;;;;;;34.48;25.92;99299.16;5169843;28;20472;-67
2022/08/24 09:27:54;;;;;;;5.57;1.83;;;;;;;35.25;24.92;99296.19;5204060;28;20636;-67
2022/08/24 09:31:06;;;;;;;1.98;1.58;;;;;;;35.33;25.31;99295.50;5245396;28;20056;-67
2022/08/24 09:34:24;;;;;;;5.10;1.52;;;;;;;34.87;25.13;99290.69;5256807;28;20052;-67
2022/08/24 09:37:31;;;;;;;6.68;1.75;;;;;;;35.62;24.79;99287.06;5266854;28;20423;-67
2022/08/24 09:40:56;;;;;;;4.93;1.40;;;;;;;35.34;25.14;99282.56;5268090;28;20055;-67
2022/08/24 09:44:25;;;;;;;3.58;1.73;;;;;;;35.66;24.62;99282.56;5267218;28;20098;-67
2022/08/24 09:47:52;;;;;;;3.83;1.98;;;;;;;35.66;24.28;99290.03;5268110;28;20523;-67
2022/08/24 09:51:15;;;;;;;5.60;1.60;;;;;;;35.17;24.03;99291.38;5267997;28;20054;-65
2022/08/24 09:54:21;;;;;;;3.60;1.90;;;;;;;35.38;25.37;99289.09;5268613;28;20063;-67
2022/08/24 09:57:34;;;;;;;3.25;1.55;;;;;;;35.63;23.96;99287.88;5268082;28;20048;-67
2022/08/24 10:01:03;;;;;;;2.97;1.70;;;;;;;35.30;24.11;99279.59;5267888;28;20544;-67
2022/08/24 10:04:30;;;;;;;1.48;1.30;;;;;;;36.02;24.16;99275.63;5267673;28;20052;-67
2022/08/24 10:07:39;;;;;;;3.03;1.60;;;;;;;35.03;24.81;99272.84;5267825;28;20048;-66
2022/08/24 10:11:01;;;;;;;5.47;1.73;;;;;;;36.07;23.74;99270.03;5267334;28;20567;-66
2022/08/24 10:14:02;;;;;;;7.28;1.58;;;;;;;35.89;24.25;99264.22;5267388;28;20066;-67
2022/08/24 10:17:18;;;;;;;2.42;1.80;;;;;;;34.99;24.41;99270.94;5267650;28;20048;-66
2022/08/24 10:20:43;;;;;;;3.92;1.70;;;;;;;35.79;24.57;99266.38;5267377;28;20150;-66
2022/08/24 10:24:01;;;;;;;2.80;1.70;;;;;;;36.35;23.70;99271.63;5260883;28;20063;-66
2022/08/24 10:27:19;;;;;;;4.32;1.70;;;;;;;35.86;23.03;99270.38;5267490;28;20055;-66
2022/08/24 10:30:23;;;;;;;3.50;1.80;;;;;;;36.25;23.45;99252.53;5267504;28;20055;-66
2022/08/24 10:33:17;;;;;;;1.75;1.55;;;;;;;35.00;24.77;99250.50;5266994;28;20082;-66
2022/08/24 10:36:23;;;;;;;1.92;1.48;;;;;;;36.15;23.92;99233.41;5266954;28;20071;-66
2022/08/24 10:40:09;;;;;;;5.47;1.63;;;;;;;35.94;24.03;99246.78;5267548;28;20047;-66
2022/08/24 10:43:34;;;;;;;1.70;1.60;;;;;;;35.80;23.28;99237.69;5205828;28;20096;-66
2022/08/24 10:46:42;;;;;;;1.75;1.55;;;;;;;35.92;23.69;99241.53;5267026;28;20508;-66
2022/08/24 10:49:35;;;;;;;3.00;1.70;;;;;;;34.86;24.46;99233.09;5267297;28;20055;-66
2022/08/24 10:52:47;;;;;;;3.83;1.40;;;;;;;34.12;23.40;99231.56;5265733;28;20058;-66
2022/08/24 10:55:38;;;;;;;5.30;1.40;;;;;;;34.88;23.25;99231.69;5267251;28;20166;-66
2022/08/24 10:58:42;;;;;;;4.78;1.25;;;;;;;34.13;22.89;99229.63;5266829;28;20573;-66
2022/08/24 11:01:36;;;;;;;;;;;;;;;34.66;23.50;99231.47;5265111;28;20547;-65
2022/08/24 11:04:32;;;;;;;2.75;1.50;;;;;;;34.50;23.78;99234.38;5267220;28;19972;-66
2022/08/24 11:07:22;;;;;;;10.45;1.40;;;;;;;34.24;23.29;99216.56;5266395;28;20052;-66
2022/08/24 11:10:24;;;;;;;2.30;1.55;;;;;;;34.69;23.75;99220.66;5266413;28;20646;-66
2022/08/24 11:13:16;;;;;;;2.45;1.70;;;;;;;34.91;24.19;99225.59;5265859;28;20055;-66
2022/08/24 11:16:06;;;;;;;5.45;1.33;;;;;;;34.57;24.56;99228.53;5266382;28;20047;-66
2022/08/24 11:19:01;;;;;;;3.97;1.45;;;;;;;33.97;25.57;99230.91;5265752;28;20043;-66
2022/08/24 11:21:54;;;;;;;1.60;1.50;;;;;;;34.04;24.10;99229.50;5265419;28;20168;-66
2022/08/24 11:24:47;;;;;;;1.40;1.30;;;;;;;34.17;24.29;99222.44;5251328;28;20059;-66
2022/08/24 11:27:42;;;;;;;3.43;1.50;;;;;;;33.91;24.58;99217.22;5266308;28;20059;-66
2022/08/24 11:30:37;;;;;;;1.88;1.75;;;;;;;33.88;25.44;99211.47;5264576;28;20051;-66
2022/08/24 11:33:47;;;;;;;1.70;1.50;;;;;;;33.30;24.70;99219.72;5265601;28;20059;-66
2022/08/24 11:36:40;;;;;;;1.50;1.40;;;;;;;33.60;25.08;99213.94;5265328;28;20409;-66
2022/08/24 11:39:37;;;;;;;4.05;1.67;;;;;;;34.05;24.29;99202.78;5266037;28;20071;-66
2022/08/24 11:42:36;;;;;;;2.03;1.77;;;;;;;34.29;24.08;99203.56;5264598;28;20082;-66
2022/08/24 11:46:08;;;;;;;1.83;1.50;;;;;;;34.17;23.71;99207.84;5266023;28;20054;-66
2022/08/24 11:49:16;;;;;;;2.85;1.50;;;;;;;33.88;24.68;99205.97;5265706;28;20440;-66
2022/08/24 11:52:16;;;;;;;2.80;1.50;;;;;;;33.25;24.63;99195.03;5264929;28;20524;-66
2022/08/24 11:55:23;;;;;;;4.78;1.45;;;;;;;33.57;24.65;99211.78;5266375;28;20113;-69
2022/08/24 11:58:12;;;;;;;6.07;1.40;;;;;;;32.38;24.70;99207.34;5273067;22;20498;-67
2022/08/24 12:01:26;;;;;;;2.70;1.20;;;;;;;32.80;24.23;99203.28;5271051;28;20058;-67
2022/08/24 12:04:16;;;;;;;5.70;1.47;;;;;;;33.22;24.29;99200.00;5286858;28;20050;-66
2022/08/24 12:07:24;;;;;;;1.58;1.10;;;;;;;32.99;24.76;99206.22;5286534;28;20047;-66
2022/08/24 12:10:26;;;;;;;5.95;1.30;;;;;;;32.58;22.81;99203.69;5285746;28;20058;-66
2022/08/24 12:13:31;;;;;;;5.68;1.40;;;;;;;32.33;23.07;99198.34;5285835;28;20065;-66
2022/08/24 12:16:34;;;;;;;3.17;1.40;;;;;;;32.95;24.07;99205.94;5286191;28;20089;-66
2022/08/24 12:19:33;;;;;;;11.10;1.88;;;;;;;31.97;23.72;99198.47;5285290;28;20056;-66
2022/08/24 12:22:27;;;;;;;2.40;1.30;;;;;;;32.18;23.94;99204.69;5285015;28;20052;-66
2022/08/24 12:26:01;;;;;;;4.97;1.40;;;;;;;32.69;23.61;99204.47;5286211;28;20058;-66
2022/08/24 12:29:07;;;;;;;6.65;1.23;;;;;;;32.78;24.04;99196.44;5286656;28;20367;-66
2022/08/24 12:32:03;;;;;;;7.07;1.60;;;;;;;31.57;24.11;99194.72;5285262;28;20524;-66
2022/08/24 12:34:56;;;;;;;3.72;1.50;;;;;;;31.93;24.36;99186.44;5285976;28;20058;-66
2022/08/24 12:37:56;;;;;;;5.10;1.60;;;;;;;32.20;24.29;99144.91;5286110;28;20085;-66
2022/08/24 12:40:55;;;;;;;2.17;1.13;;;;;;;32.97;24.52;99194.69;5285296;28;20054;-66
2022/08/24 12:43:50;;;;;;;2.88;1.58;;;;;;;32.71;24.34;99192.09;5285575;28;20058;-66
2022/08/24 12:46:43;;;;;;;2.47;1.30;;;;;;;32.87;23.83;99189.25;5285279;28;20051;-66
2022/08/24 12:49:45;;;;;;;;;;;;;;;32.74;23.92;99191.53;5286686;28;20066;-66
2022/08/24 12:53:07;;;;;;;3.38;1.40;;;;;;;32.65;24.98;99193.25;5284908;28;19927;-66
2022/08/24 12:56:30;;;;;;;4.00;1.20;;;;;;;32.81;25.17;99187.63;5285528;28;20083;-66
2022/08/24 12:59:26;;;;;;;2.97;1.40;;;;;;;33.04;24.20;99194.38;5285941;28;20055;-66
2022/08/24 13:02:16;;;;;;;1.02;0.93;;;;;;;32.36;24.79;99192.28;5284490;28;20058;-66
2022/08/24 13:05:16;;;;;;;1.63;1.20;;;;;;;32.09;26.40;99185.28;5285752;28;20051;-66
2022/08/24 13:08:20;;;;;;;3.22;1.20;;;;;;;32.46;25.60;99189.53;5285675;28;20062;-66
2022/08/24 13:11:13;;;;;;;6.90;1.55;;;;;;;32.10;24.80;99192.41;5284485;28;20134;-66
2022/08/24 13:14:18;;;;;;;2.63;1.50;;;;;;;32.29;24.51;99189.84;5285843;28;20054;-67
2022/08/24 13:17:11;;;;;;;2.28;1.48;;;;;;;32.21;25.35;99177.53;5285248;28;20048;-67
2022/08/24 13:20:16;;;;;;;1.85;1.40;;;;;;;32.32;25.26;99183.81;5284708;28;20521;-67
2022/08/24 13:23:10;;;;;;;1.80;1.40;;;;;;;32.41;25.93;99181.28;5285084;28;20070;-67
2022/08/24 13:26:25;;;;;;;4.88;1.30;;;;;;;32.43;25.51;99171.69;5285432;28;20050;-67
2022/08/24 13:29:16;;;;;;;1.48;1.38;;;;;;;32.49;26.17;99177.97;5285851;28;20058;-67
2022/08/24 13:32:16;;;;;;;2.42;1.40;;;;;;;31.94;26.44;99177.91;5284516;28;20127;-67
2022/08/24 13:35:33;;;;;;;5.10;1.45;;;;;;;32.13;25.74;99175.38;5285892;28;20578;-67
2022/08/24 13:38:33;;;;;;;6.88;1.33;;;;;;;32.34;26.32;99170.59;5285974;28;20047;-67
2022/08/24 13:41:38;;;;;;;2.92;1.52;;;;;;;32.21;26.20;99165.72;5285445;28;20052;-65
2022/08/24 13:44:33;;;;;;;1.90;1.33;;;;;;;32.30;26.16;99161.31;5286120;28;20199;-71
2022/08/24 13:47:30;;;;;;;6.85;1.48;;;;;;;32.49;25.83;99164.25;5285743;28;20044;-66
2022/08/24 13:50:31;;;;;;;1.40;1.30;;;;;;;31.88;25.43;99159.03;5285415;28;20140;-66
2022/08/24 13:53:52;;;;;;;3.75;1.40;;;;;;;32.09;25.34;99157.84;5285176;28;20405;-66
2022/08/24 13:56:43;;;;;;;3.60;1.52;;;;;;;31.64;25.69;99148.66;5284903;28;20048;-67
2022/08/24 13:59:55;;;;;;;2.83;1.40;;;;;;;31.77;25.35;99142.56;5288023;28;20051;-66
2022/08/24 14:03:03;;;;;;;3.65;1.58;;;;;;;32.18;26.28;99141.59;5288301;28;20051;-66
2022/08/24 14:06:45;;;;;;;2.60;1.77;;;;;;;32.47;25.69;99152.72;5288670;28;20050;-67
2022/08/24 14:09:44;;;;;;;9.68;2.00;;;;;;;32.27;25.98;99131.69;5271087;28;20562;-66